createdAt,value
2022-10-20T00:01:17.336Z,29.33
2022-10-20T00:03:49.592Z,29.36
2022-10-20T00:06:27.489Z,29.35
2022-10-20T00:09:00.749Z,29.31
2022-10-20T00:11:33.619Z,29.33
2022-10-20T00:14:05.949Z,29.33
2022-10-20T00:16:40.734Z,29.32
2022-10-20T00:19:12.651Z,29.30
2022-10-20T00:21:43.958Z,29.30
2022-10-20T00:24:15.254Z,29.29
2022-10-20T00:26:46.610Z,29.31
2022-10-20T00:29:19.487Z,29.31
2022-10-20T00:31:50.839Z,29.32
2022-10-20T00:34:21.590Z,29.30
2022-10-20T00:36:52.938Z,29.32
2022-10-20T00:39:23.646Z,29.30
2022-10-20T00:41:54.798Z,29.32
2022-10-20T00:44:43.893Z,29.32
2022-10-20T00:47:23.126Z,29.31
2022-10-20T00:49:55.364Z,29.29
2022-10-20T00:52:26.638Z,29.27
2022-10-20T00:54:57.287Z,29.27
2022-10-20T00:57:29.133Z,29.29
2022-10-20T01:00:00.633Z,29.29
2022-10-20T01:02:32.045Z,29.27
2022-10-20T01:05:03.937Z,29.28
2022-10-20T01:07:35.690Z,29.29
2022-10-20T01:10:09.489Z,29.30
2022-10-20T01:12:47.274Z,29.30
2022-10-20T01:15:33.275Z,29.28
2022-10-20T01:18:16.226Z,29.30
2022-10-20T01:21:07.339Z,29.30
2022-10-20T01:23:55.001Z,29.32
2022-10-20T01:26:32.413Z,29.33
2022-10-20T01:29:24.932Z,29.34
2022-10-20T01:31:59.308Z,29.33
2022-10-20T01:34:37.090Z,29.35
2022-10-20T01:37:34.363Z,29.35
2022-10-20T01:40:29.438Z,29.37
2022-10-20T01:43:05.380Z,29.36
2022-10-20T01:45:40.284Z,29.36
2022-10-20T01:48:14.618Z,29.37
2022-10-20T01:50:47.058Z,29.40
2022-10-20T01:53:18.912Z,29.40
2022-10-20T01:55:55.467Z,29.41
2022-10-20T01:58:32.609Z,29.41
2022-10-20T02:01:19.279Z,29.41
2022-10-20T02:04:03.655Z,29.41
2022-10-20T02:06:54.792Z,29.43
2022-10-20T02:09:35.525Z,29.44
2022-10-20T02:12:08.643Z,29.44
2022-10-20T02:14:41.984Z,29.46
2022-10-20T02:17:19.317Z,29.45
2022-10-20T02:19:54.951Z,29.47
2022-10-20T02:22:27.245Z,29.46
2022-10-20T02:24:58.602Z,29.47
2022-10-20T02:27:35.837Z,29.50
2022-10-20T02:30:14.690Z,29.49
2022-10-20T02:32:52.239Z,29.49
2022-10-20T02:35:29.411Z,29.50
2022-10-20T02:38:01.397Z,29.52
2022-10-20T02:40:33.044Z,29.54
2022-10-20T02:43:04.409Z,29.57
2022-10-20T02:45:35.130Z,29.57
2022-10-20T02:48:07.922Z,29.58
2022-10-20T02:50:39.910Z,29.59
2022-10-20T02:53:11.267Z,29.59
2022-10-20T02:55:42.311Z,29.59
2022-10-20T02:58:13.960Z,29.58
2022-10-20T03:00:45.295Z,29.60
2022-10-20T03:03:16.063Z,29.59
2022-10-20T03:05:47.705Z,29.63
2022-10-20T03:08:19.196Z,29.59
2022-10-20T03:10:50.194Z,29.64
2022-10-20T03:13:21.541Z,29.63
2022-10-20T03:15:53.052Z,29.66
2022-10-20T03:18:24.517Z,29.65
2022-10-20T03:20:57.056Z,29.67
2022-10-20T03:23:28.957Z,29.67
2022-10-20T03:26:11.434Z,29.71
2022-10-20T03:28:43.570Z,29.71
2022-10-20T03:31:14.975Z,29.70
2022-10-20T03:33:45.752Z,29.71
2022-10-20T03:36:17.203Z,29.71
2022-10-20T03:38:48.619Z,29.72
2022-10-20T03:41:20.144Z,29.75
2022-10-20T03:43:51.476Z,29.73
2022-10-20T03:46:22.806Z,29.76
2022-10-20T03:48:53.659Z,29.76
2022-10-20T03:51:25.241Z,29.76
2022-10-20T03:53:56.586Z,29.79
2022-10-20T03:56:28.021Z,29.78
2022-10-20T03:58:59.547Z,29.78
2022-10-20T04:01:35.554Z,29.84
2022-10-20T04:04:07.043Z,29.84
2022-10-20T04:06:38.481Z,29.84
2022-10-20T04:09:10.057Z,29.86
2022-10-20T04:11:41.593Z,29.88
2022-10-20T04:14:12.408Z,29.87
2022-10-20T04:16:44.817Z,29.87
2022-10-20T04:19:16.313Z,29.89
2022-10-20T04:21:47.812Z,29.90
2022-10-20T04:24:19.231Z,29.90
2022-10-20T04:29:27.194Z,29.93
2022-10-20T04:31:58.086Z,29.92
2022-10-20T04:34:29.494Z,29.95
2022-10-20T04:37:02.416Z,29.96
2022-10-20T04:39:33.821Z,29.95
2022-10-20T04:42:05.235Z,29.96
2022-10-20T04:44:36.000Z,29.95
2022-10-20T04:47:07.417Z,29.99
2022-10-20T04:49:38.962Z,29.97
2022-10-20T04:52:10.646Z,30.00
2022-10-20T04:54:41.987Z,29.98
2022-10-20T04:57:13.844Z,30.04
2022-10-20T04:59:45.392Z,30.02
2022-10-20T05:02:16.961Z,30.02
2022-10-20T05:04:48.414Z,30.03
2022-10-20T05:07:19.291Z,30.06
2022-10-20T05:09:51.672Z,30.08
2022-10-20T05:12:23.147Z,30.06
2022-10-20T05:14:54.607Z,30.08
2022-10-20T05:17:25.978Z,30.11
2022-10-20T05:19:56.768Z,30.09
2022-10-20T05:22:28.108Z,30.11
2022-10-20T05:25:12.677Z,30.09
2022-10-20T05:27:50.365Z,30.11
2022-10-20T05:30:21.729Z,30.11
2022-10-20T05:32:53.173Z,30.13
2022-10-20T05:35:24.085Z,30.11
2022-10-20T05:37:55.550Z,30.13
2022-10-20T05:40:27.738Z,30.13
2022-10-20T05:43:00.451Z,30.15
2022-10-20T05:45:31.894Z,30.17
2022-10-20T05:48:03.198Z,30.20
2022-10-20T05:50:34.021Z,30.20
2022-10-20T05:53:05.585Z,30.17
2022-10-20T05:55:37.031Z,30.18
2022-10-20T05:58:08.345Z,30.17
2022-10-20T06:00:44.585Z,30.19
2022-10-20T06:03:17.491Z,30.19
2022-10-20T06:05:50.448Z,30.17
2022-10-20T06:08:21.903Z,30.17
2022-10-20T06:10:53.244Z,30.20
2022-10-20T06:13:24.021Z,30.20
2022-10-20T06:15:55.449Z,30.18
2022-10-20T06:18:26.819Z,30.20
2022-10-20T06:21:07.117Z,30.22
2022-10-20T06:23:38.503Z,30.23
2022-10-20T06:26:11.920Z,30.25
2022-10-20T06:28:44.284Z,30.23
2022-10-20T06:31:21.906Z,30.25
2022-10-20T06:33:54.370Z,30.20
2022-10-20T06:36:26.515Z,30.24
2022-10-20T06:38:59.857Z,30.23
2022-10-20T06:41:31.697Z,30.23
2022-10-20T06:44:03.319Z,30.21
2022-10-20T06:46:36.286Z,30.21
2022-10-20T06:49:10.634Z,30.20
2022-10-20T06:51:42.675Z,30.22
2022-10-20T06:54:14.120Z,30.20
2022-10-20T06:56:45.585Z,30.22
2022-10-20T06:59:17.029Z,30.25
2022-10-20T07:01:48.583Z,30.28
2022-10-20T07:04:20.148Z,30.23
2022-10-20T07:06:51.522Z,30.23
2022-10-20T07:09:23.591Z,30.26
2022-10-20T07:11:56.311Z,30.27
2022-10-20T07:14:31.561Z,30.26
2022-10-20T07:17:04.000Z,30.29
2022-10-20T07:20:11.546Z,30.28
2022-10-20T07:22:42.810Z,30.26
2022-10-20T07:25:14.130Z,30.29
2022-10-20T07:27:45.401Z,30.27
2022-10-20T07:30:16.750Z,30.27
2022-10-20T07:32:48.161Z,30.25
2022-10-20T07:35:19.619Z,30.25
2022-10-20T07:37:50.400Z,30.25
2022-10-20T07:40:21.901Z,30.28
2022-10-20T07:42:53.157Z,30.27
2022-10-20T07:45:24.564Z,30.26
2022-10-20T07:47:55.409Z,30.29
2022-10-20T07:50:27.572Z,30.26
2022-10-20T07:52:59.125Z,30.27
2022-10-20T07:55:38.579Z,30.28
2022-10-20T07:58:10.568Z,30.29
2022-10-20T08:00:42.046Z,30.28
2022-10-20T08:03:13.457Z,30.30
2022-10-20T08:05:44.906Z,30.30
2022-10-20T08:08:16.287Z,30.26
2022-10-20T08:10:47.757Z,30.28
2022-10-20T08:13:18.502Z,30.32
2022-10-20T08:15:55.297Z,30.30
2022-10-20T08:18:35.400Z,30.28
2022-10-20T08:21:21.246Z,30.32
2022-10-20T08:23:53.483Z,30.32
2022-10-20T08:26:27.408Z,30.29
2022-10-20T08:28:59.003Z,30.31
2022-10-20T08:31:30.579Z,30.32
2022-10-20T08:34:02.705Z,30.31
2022-10-20T08:36:34.399Z,30.36
2022-10-20T08:39:06.691Z,30.31
2022-10-20T08:44:41.435Z,30.34
2022-10-20T08:47:32.619Z,30.33
2022-10-20T08:50:07.923Z,30.32
2022-10-20T08:52:39.651Z,30.31
2022-10-20T08:55:14.321Z,30.31
2022-10-20T08:57:45.832Z,30.34
2022-10-20T09:00:24.531Z,30.33
2022-10-20T09:02:57.014Z,30.30
2022-10-20T09:05:31.221Z,30.33
2022-10-20T09:08:02.379Z,30.36
2022-10-20T09:10:39.870Z,30.33
2022-10-20T09:13:23.737Z,30.36
2022-10-20T09:16:03.332Z,30.37
2022-10-20T09:18:36.350Z,30.36
2022-10-20T09:21:24.268Z,30.35
2022-10-20T09:24:04.278Z,30.36
2022-10-20T09:26:54.666Z,30.37
2022-10-20T09:29:39.710Z,30.35
2022-10-20T09:32:56.671Z,30.36
2022-10-20T09:35:38.731Z,30.36
2022-10-20T09:38:25.161Z,30.34
2022-10-20T09:41:13.604Z,30.32
2022-10-20T09:43:57.143Z,30.35
2022-10-20T09:46:32.264Z,30.33
2022-10-20T09:49:03.160Z,30.36
2022-10-20T09:51:35.831Z,30.33
2022-10-20T09:54:21.298Z,30.35
2022-10-20T09:56:52.658Z,30.37
2022-10-20T09:59:30.279Z,30.37
2022-10-20T10:02:04.797Z,30.35
2022-10-20T10:04:37.662Z,30.37
2022-10-20T10:07:29.067Z,30.37
2022-10-20T10:10:10.554Z,30.40
2022-10-20T10:12:41.538Z,30.37
2022-10-20T10:15:32.191Z,30.34
2022-10-20T10:18:14.260Z,30.35
2022-10-20T10:20:45.408Z,30.36
2022-10-20T10:23:23.843Z,30.33
2022-10-20T10:25:59.246Z,30.34
2022-10-20T10:28:40.687Z,30.35
2022-10-20T10:31:20.530Z,30.34
2022-10-20T10:34:10.010Z,30.36
2022-10-20T10:36:41.136Z,30.36
2022-10-20T10:39:17.499Z,30.40
2022-10-20T10:42:25.409Z,30.40
2022-10-20T10:45:05.294Z,30.41
2022-10-20T10:47:51.957Z,30.41
2022-10-20T10:50:43.417Z,30.37
2022-10-20T10:53:13.895Z,30.37
2022-10-20T10:56:03.109Z,30.35
2022-10-20T10:58:53.139Z,30.34
2022-10-20T11:01:42.400Z,30.35
2022-10-20T11:04:27.098Z,30.34
2022-10-20T11:06:58.284Z,30.32
2022-10-20T11:10:01.314Z,30.33
2022-10-20T11:12:56.259Z,30.31
2022-10-20T11:15:43.059Z,30.32
2022-10-20T11:18:16.953Z,30.32
2022-10-20T11:21:18.145Z,30.30
2022-10-20T11:24:09.420Z,30.30
2022-10-20T11:26:46.221Z,30.32
2022-10-20T11:29:35.194Z,30.34
2022-10-20T11:32:08.726Z,30.34
2022-10-20T11:34:43.811Z,30.36
2022-10-20T11:37:26.398Z,30.36
2022-10-20T11:40:08.648Z,30.35
2022-10-20T11:43:07.577Z,30.37
2022-10-20T11:45:40.828Z,30.35
2022-10-20T11:48:36.682Z,30.36
2022-10-20T11:51:42.144Z,30.37
2022-10-20T11:54:54.097Z,30.37
2022-10-20T11:57:43.931Z,30.41
2022-10-20T12:00:51.831Z,30.44
2022-10-20T12:03:45.994Z,30.42
2022-10-20T12:06:47.240Z,30.41
2022-10-20T12:09:42.311Z,30.41
2022-10-20T12:12:17.481Z,30.43
2022-10-20T12:14:58.098Z,30.40
2022-10-20T12:17:38.498Z,30.41
2022-10-20T12:20:24.859Z,30.37
2022-10-20T12:22:58.432Z,30.36
2022-10-20T12:25:29.256Z,30.37
2022-10-20T12:28:27.428Z,30.37
2022-10-20T12:31:03.623Z,30.41
2022-10-20T12:34:06.655Z,30.37
2022-10-20T12:36:41.171Z,30.37
2022-10-20T12:39:32.099Z,30.41
2022-10-20T12:42:08.056Z,30.43
2022-10-20T12:44:47.300Z,30.44
2022-10-20T12:47:30.774Z,30.43
2022-10-20T12:50:06.412Z,30.42
2022-10-20T12:52:42.184Z,30.42
2022-10-20T12:58:20.380Z,30.38
2022-10-20T13:01:22.061Z,30.34
2022-10-20T13:03:55.541Z,30.34
2022-10-20T13:06:26.380Z,30.34
2022-10-20T13:09:06.236Z,30.35
2022-10-20T13:11:43.425Z,30.33
2022-10-20T13:14:25.570Z,30.33
2022-10-20T13:17:19.594Z,30.35
2022-10-20T13:20:18.073Z,30.40
2022-10-20T13:22:54.386Z,30.42
2022-10-20T13:25:47.876Z,30.42
2022-10-20T13:28:23.762Z,30.41
2022-10-20T13:31:18.975Z,30.43
2022-10-20T13:34:07.173Z,30.41
2022-10-20T13:36:40.897Z,30.44
2022-10-20T13:39:30.325Z,30.42
2022-10-20T13:42:27.663Z,30.45
2022-10-20T13:45:17.059Z,30.37
2022-10-20T13:47:50.724Z,30.33
2022-10-20T13:50:29.788Z,30.33
2022-10-20T13:53:06.162Z,30.30
2022-10-20T13:56:19.460Z,30.34
2022-10-20T13:59:08.778Z,30.23
2022-10-20T14:01:40.188Z,30.30
2022-10-20T14:04:36.191Z,30.23
2022-10-20T14:07:15.970Z,30.24
2022-10-20T14:09:48.467Z,30.21
2022-10-20T14:12:28.869Z,30.22
2022-10-20T14:15:02.457Z,30.23
2022-10-20T14:17:35.343Z,30.25
2022-10-20T14:20:27.926Z,30.25
2022-10-20T14:23:01.140Z,30.30
2022-10-20T14:25:34.155Z,30.29
2022-10-20T14:28:07.459Z,30.32
2022-10-20T14:30:41.169Z,30.32
2022-10-20T14:33:18.962Z,30.30
2022-10-20T14:35:56.094Z,30.32
2022-10-20T14:38:35.640Z,30.30
2022-10-20T14:41:09.848Z,30.36
2022-10-20T14:43:50.911Z,30.39
2022-10-20T14:46:33.629Z,30.37
2022-10-20T14:49:04.562Z,30.40
2022-10-20T14:51:56.109Z,30.38
2022-10-20T14:54:39.788Z,30.42
2022-10-20T14:57:13.485Z,30.40
2022-10-20T14:59:59.004Z,30.42
2022-10-20T15:02:33.327Z,30.42
2022-10-20T15:05:45.352Z,30.44
2022-10-20T15:08:21.171Z,30.44
2022-10-20T15:10:52.197Z,30.43
2022-10-20T15:13:32.844Z,30.47
2022-10-20T15:16:05.745Z,30.47
2022-10-20T15:18:39.434Z,30.49
2022-10-20T15:21:11.538Z,30.49
2022-10-20T15:23:42.474Z,30.50
2022-10-20T15:26:17.233Z,30.50
2022-10-20T15:28:52.867Z,30.45
2022-10-20T15:31:27.162Z,30.46
2022-10-20T15:33:59.562Z,30.45
2022-10-20T15:36:37.812Z,30.44
2022-10-20T15:39:10.094Z,30.42
2022-10-20T15:41:42.209Z,30.37
2022-10-20T15:44:19.210Z,30.40
2022-10-20T15:46:50.739Z,30.42
2022-10-20T15:49:21.728Z,30.40
2022-10-20T15:51:55.491Z,30.43
2022-10-20T15:54:26.451Z,30.44
2022-10-20T15:56:57.407Z,30.48
2022-10-20T15:59:28.227Z,30.51
2022-10-20T16:01:59.201Z,30.51
2022-10-20T16:04:30.548Z,30.53
2022-10-20T16:07:03.117Z,30.52
2022-10-20T16:09:34.306Z,30.52
2022-10-20T16:12:05.299Z,30.50
2022-10-20T16:14:36.439Z,30.52
2022-10-20T16:17:07.004Z,30.50
2022-10-20T16:19:38.227Z,30.47
2022-10-20T16:22:08.614Z,30.48
2022-10-20T16:24:39.392Z,30.43
2022-10-20T16:27:10.202Z,30.45
2022-10-20T16:29:40.992Z,30.46
2022-10-20T16:32:11.843Z,30.47
2022-10-20T16:34:42.654Z,30.44
2022-10-20T16:37:13.640Z,30.47
2022-10-20T16:39:44.546Z,30.45
2022-10-20T16:42:15.681Z,30.45
2022-10-20T16:44:46.746Z,30.45
2022-10-20T16:47:17.754Z,30.44
2022-10-20T16:49:48.550Z,30.42
2022-10-20T16:52:19.396Z,30.45
2022-10-20T16:54:50.631Z,30.47
2022-10-20T16:57:21.403Z,30.43
2022-10-20T16:59:55.252Z,30.44
2022-10-20T17:02:26.181Z,30.44
2022-10-20T17:04:57.095Z,30.44
2022-10-20T17:07:29.669Z,30.42
2022-10-20T17:10:00.640Z,30.44
2022-10-20T17:12:31.571Z,30.42
2022-10-20T17:15:02.167Z,30.44
2022-10-20T17:17:32.856Z,30.42
2022-10-20T17:20:03.782Z,30.44
2022-10-20T17:22:34.954Z,30.43
2022-10-20T17:25:05.838Z,30.43
2022-10-20T17:27:36.881Z,30.43
2022-10-20T17:30:08.142Z,30.44
2022-10-20T17:32:38.904Z,30.42
2022-10-20T17:35:10.484Z,30.42
2022-10-20T17:37:41.345Z,30.40
2022-10-20T17:40:12.605Z,30.40
2022-10-20T17:42:43.744Z,30.41
2022-10-20T17:45:14.432Z,30.40
2022-10-20T17:47:45.332Z,30.36
2022-10-20T17:50:16.164Z,30.36
2022-10-20T17:52:47.167Z,30.34
2022-10-20T17:55:18.049Z,30.36
2022-10-20T17:57:48.973Z,30.36
2022-10-20T18:00:31.785Z,30.37
2022-10-20T18:03:10.600Z,30.35
2022-10-20T18:05:41.402Z,30.34
2022-10-20T18:08:12.185Z,30.34
2022-10-20T18:10:46.627Z,30.34
2022-10-20T18:13:17.583Z,30.30
2022-10-20T18:15:48.455Z,30.33
2022-10-20T18:18:19.305Z,30.30
2022-10-20T18:21:00.181Z,30.29
2022-10-20T18:23:33.430Z,30.29
2022-10-20T18:26:09.718Z,30.30
2022-10-20T18:28:45.817Z,30.31
2022-10-20T18:31:22.803Z,30.28
2022-10-20T18:34:02.615Z,30.29
2022-10-20T18:36:42.007Z,30.27
2022-10-20T18:39:17.704Z,30.24
2022-10-20T18:41:49.133Z,30.27
2022-10-20T18:44:21.785Z,30.28
2022-10-20T18:46:54.069Z,30.28
2022-10-20T18:49:25.057Z,30.27
2022-10-20T18:51:56.028Z,30.27
2022-10-20T18:54:26.990Z,30.23
2022-10-20T18:56:57.830Z,30.24
2022-10-20T18:59:29.402Z,30.23
2022-10-20T19:02:00.238Z,30.25
2022-10-20T19:04:31.157Z,30.24
2022-10-20T19:07:02.061Z,30.27
2022-10-20T19:09:32.856Z,30.25
2022-10-20T19:12:08.205Z,30.22
2022-10-20T19:14:41.418Z,30.25
2022-10-20T19:17:12.430Z,30.24
2022-10-20T19:19:45.776Z,30.22
2022-10-20T19:22:16.764Z,30.21
2022-10-20T19:24:47.621Z,30.22
2022-10-20T19:27:27.176Z,30.22
2022-10-20T19:29:58.691Z,30.20
2022-10-20T19:32:29.685Z,30.20
2022-10-20T19:35:00.686Z,30.19
2022-10-20T19:37:49.371Z,30.21
2022-10-20T19:40:20.533Z,30.20
2022-10-20T19:42:51.391Z,30.22
2022-10-20T19:45:22.047Z,30.20
2022-10-20T19:47:52.877Z,30.19
2022-10-20T19:50:23.496Z,30.21
2022-10-20T19:52:57.959Z,30.19
2022-10-20T19:55:29.680Z,30.18
2022-10-20T19:58:00.650Z,30.17
2022-10-20T20:00:31.580Z,30.15
2022-10-20T20:03:02.505Z,30.16
2022-10-20T20:05:33.588Z,30.18
2022-10-20T20:08:04.521Z,30.16
2022-10-20T20:10:36.025Z,30.15
2022-10-20T20:13:07.607Z,30.15
2022-10-20T20:15:37.811Z,30.14
2022-10-20T20:18:08.762Z,30.14
2022-10-20T20:20:41.792Z,30.15
2022-10-20T20:23:13.044Z,30.14
2022-10-20T20:25:45.884Z,30.15
2022-10-20T20:28:16.824Z,30.15
2022-10-20T20:30:47.672Z,30.14
2022-10-20T20:33:18.467Z,30.14
2022-10-20T20:35:49.483Z,30.11
2022-10-20T20:38:20.304Z,30.14
2022-10-20T20:40:52.377Z,30.12
2022-10-20T20:43:23.532Z,30.14
2022-10-20T20:45:54.587Z,30.13
2022-10-20T20:48:25.577Z,30.12
2022-10-20T20:51:00.708Z,30.12
2022-10-20T20:56:08.034Z,30.12
2022-10-20T20:58:38.970Z,30.10
2022-10-20T21:01:14.126Z,30.12
2022-10-20T21:03:46.099Z,30.11
2022-10-20T21:06:25.689Z,30.12
2022-10-20T21:09:04.804Z,30.12
2022-10-20T21:11:35.583Z,30.11
2022-10-20T21:14:07.092Z,30.11
2022-10-20T21:16:40.232Z,30.11
2022-10-20T21:19:12.852Z,30.13
2022-10-20T21:21:47.182Z,30.10
2022-10-20T21:24:18.406Z,30.08
2022-10-20T21:26:49.651Z,30.08
2022-10-20T21:29:20.890Z,30.07
2022-10-20T21:31:51.519Z,30.08
2022-10-20T21:34:22.432Z,30.08
2022-10-20T21:36:53.369Z,30.09
2022-10-20T21:39:24.271Z,30.07
2022-10-20T21:41:55.387Z,30.07
2022-10-20T21:44:26.239Z,30.08
2022-10-20T21:46:57.240Z,30.07
2022-10-20T21:49:28.581Z,30.10
2022-10-20T21:52:00.190Z,30.10
2022-10-20T21:54:32.263Z,30.09
2022-10-20T21:57:03.407Z,30.07
2022-10-20T21:59:34.836Z,30.07
2022-10-20T22:02:05.902Z,30.04
2022-10-20T22:04:36.733Z,30.02
2022-10-20T22:07:09.260Z,30.02
2022-10-20T22:09:40.142Z,29.97
2022-10-20T22:12:11.121Z,30.01
2022-10-20T22:14:43.772Z,30.00
2022-10-20T22:17:17.394Z,30.02
2022-10-20T22:19:49.183Z,30.04
2022-10-20T22:22:20.178Z,30.05
2022-10-20T22:24:51.457Z,30.06
2022-10-20T22:27:41.506Z,29.99
2022-10-20T22:30:13.795Z,30.00
2022-10-20T22:32:44.641Z,30.02
2022-10-20T22:35:15.630Z,30.05
2022-10-20T22:37:46.602Z,30.05
2022-10-20T22:40:17.570Z,30.08
2022-10-20T22:42:49.077Z,30.08
2022-10-20T22:45:20.099Z,30.00
2022-10-20T22:47:51.125Z,29.99
2022-10-20T22:50:22.710Z,30.00
2022-10-20T22:52:56.577Z,30.08
2022-10-20T22:55:27.449Z,30.04
2022-10-20T23:00:34.373Z,30.01
2022-10-20T23:03:04.970Z,30.04
2022-10-20T23:05:36.602Z,30.03
2022-10-20T23:09:50.641Z,29.95
2022-10-20T23:12:21.515Z,29.89
2022-10-20T23:14:52.482Z,29.82
2022-10-20T23:17:23.232Z,29.87
2022-10-20T23:19:54.156Z,29.93
2022-10-20T23:22:25.039Z,29.93
2022-10-20T23:24:56.113Z,29.93
2022-10-20T23:27:26.906Z,29.95
2022-10-20T23:29:57.693Z,29.95
2022-10-20T23:32:28.566Z,29.94
2022-10-20T23:34:59.345Z,29.92
2022-10-20T23:37:30.112Z,29.96
2022-10-20T23:40:00.876Z,29.96
2022-10-20T23:42:31.783Z,29.95
2022-10-20T23:45:02.545Z,29.95
2022-10-20T23:47:33.413Z,29.93
2022-10-20T23:50:04.010Z,29.93
2022-10-20T23:52:35.068Z,29.94
2022-10-20T23:55:06.506Z,29.95
2022-10-20T23:57:37.783Z,29.98
